createdAt,value
2023-04-02T00:01:41.023Z,98866.75
2023-04-02T00:05:55.909Z,98863.22
2023-04-02T00:09:59.207Z,98865.88
2023-04-02T00:14:03.941Z,98871.13
2023-04-02T00:18:08.478Z,98869.34
2023-04-02T00:22:18.198Z,98870.16
2023-04-02T00:26:30.487Z,98865.78
2023-04-02T00:30:33.545Z,98862.25
2023-04-02T00:34:39.453Z,98874.53
2023-04-02T00:38:46.785Z,98865.75
2023-04-02T00:42:52.120Z,98862.25
2023-04-02T00:46:55.449Z,98875.41
2023-04-02T00:51:00.978Z,98868.44
2023-04-02T00:55:10.477Z,98873.69
2023-04-02T00:59:21.109Z,98870.22
2023-04-02T01:03:44.379Z,98875.53
2023-04-02T01:08:02.987Z,98880.88
2023-04-02T01:12:26.396Z,98872.19
2023-04-02T01:16:46.706Z,98885.38
2023-04-02T01:21:21.900Z,98877.50
2023-04-02T01:25:31.750Z,98881.06
2023-04-02T01:29:39.210Z,98885.41
2023-04-02T01:33:42.985Z,98879.31
2023-04-02T01:37:51.646Z,98891.63
2023-04-02T01:42:08.006Z,98883.72
2023-04-02T01:46:28.252Z,98889.88
2023-04-02T01:50:37.567Z,98885.50
2023-04-02T01:54:43.207Z,98881.13
2023-04-02T01:58:49.489Z,98882.03
2023-04-02T02:02:54.212Z,98889.94
2023-04-02T02:07:00.799Z,98884.72
2023-04-02T02:11:05.716Z,98889.13
2023-04-02T02:15:15.556Z,98892.66
2023-04-02T02:19:28.280Z,98888.31
2023-04-02T02:23:32.498Z,98893.63
2023-04-02T02:27:51.468Z,98902.44
2023-04-02T02:31:57.734Z,98890.16
2023-04-02T02:36:06.457Z,98891.03
2023-04-02T02:40:21.182Z,98895.44
2023-04-02T02:44:26.764Z,98888.44
2023-04-02T02:48:37.296Z,98893.69
2023-04-02T02:52:51.975Z,98887.53
2023-04-02T02:57:00.172Z,98892.81
2023-04-02T03:01:04.654Z,98899.81
2023-04-02T03:05:11.006Z,98900.66
2023-04-02T03:09:23.682Z,98900.63
2023-04-02T03:13:33.166Z,98904.16
2023-04-02T03:17:40.372Z,98907.69
2023-04-02T03:21:49.444Z,98909.50
2023-04-02T03:26:03.044Z,98916.47
2023-04-02T03:30:22.215Z,98912.16
2023-04-02T03:34:29.886Z,98906.91
2023-04-02T03:38:36.892Z,98909.56
2023-04-02T03:42:46.565Z,98922.75
2023-04-02T03:46:57.683Z,98919.28
2023-04-02T03:51:08.128Z,98927.19
2023-04-02T03:55:15.976Z,98928.94
2023-04-02T03:59:31.958Z,98937.69
2023-04-02T04:03:41.935Z,98940.31
2023-04-02T04:07:46.329Z,98948.19
2023-04-02T04:11:52.821Z,98957.84
2023-04-02T04:16:02.219Z,98959.59
2023-04-02T04:20:17.101Z,98971.03
2023-04-02T04:24:23.728Z,98977.13
2023-04-02T04:28:41.659Z,98978.91
2023-04-02T04:32:51.114Z,98979.78
2023-04-02T04:37:01.897Z,98977.13
2023-04-02T04:41:14.348Z,98986.78
2023-04-02T04:45:35.994Z,98985.88
2023-04-02T04:49:45.480Z,98992.00
2023-04-02T04:53:53.951Z,98992.00
2023-04-02T04:58:04.550Z,98995.50
2023-04-02T05:02:13.149Z,98998.09
2023-04-02T05:06:33.880Z,98995.50
2023-04-02T05:10:43.688Z,99005.97
2023-04-02T05:14:52.496Z,99011.22
2023-04-02T05:19:01.026Z,99015.63
2023-04-02T05:23:16.259Z,99026.13
2023-04-02T05:27:26.500Z,99025.19
2023-04-02T05:31:37.785Z,99031.31
2023-04-02T05:35:45.809Z,99027.78
2023-04-02T05:39:55.981Z,99036.53
2023-04-02T05:44:08.875Z,99032.13
2023-04-02T05:48:18.962Z,99035.59
2023-04-02T05:52:27.036Z,99034.75
2023-04-02T05:56:38.504Z,99047.94
2023-04-02T06:01:03.820Z,99039.19
2023-04-02T06:05:13.715Z,99040.97
2023-04-02T06:09:22.167Z,99046.22
2023-04-02T06:13:29.120Z,99062.03
2023-04-02T06:17:44.419Z,99054.16
2023-04-02T06:21:49.861Z,99069.09
2023-04-02T06:26:02.935Z,99063.84
2023-04-02T06:30:18.649Z,99063.81
2023-04-02T06:34:26.928Z,99077.84
2023-04-02T06:38:37.165Z,99080.47
2023-04-02T06:42:43.481Z,99085.72
2023-04-02T06:47:17.489Z,99084.81
2023-04-02T06:51:27.405Z,99093.56
2023-04-02T06:55:37.951Z,99082.97
2023-04-02T06:59:41.621Z,99090.84
2023-04-02T07:03:53.544Z,99094.25
2023-04-02T07:08:18.616Z,99101.25
2023-04-02T07:12:28.857Z,99103.81
2023-04-02T07:16:37.745Z,99101.19
2023-04-02T07:20:42.799Z,99105.56
2023-04-02T07:25:00.580Z,99107.25
2023-04-02T07:29:03.983Z,99112.53
2023-04-02T07:33:07.024Z,99119.50
2023-04-02T07:37:15.353Z,99123.84
2023-04-02T07:41:19.676Z,99126.41
2023-04-02T07:45:22.790Z,99125.47
2023-04-02T07:49:25.787Z,99128.03
2023-04-02T07:53:32.160Z,99130.53
2023-04-02T07:57:35.209Z,99136.59
2023-04-02T08:01:38.407Z,99147.06
2023-04-02T08:05:41.495Z,99145.22
2023-04-02T08:09:46.047Z,99152.13
2023-04-02T08:13:49.141Z,99151.19
2023-04-02T08:17:53.522Z,99152.84
2023-04-02T08:21:56.660Z,99170.34
2023-04-02T08:26:01.066Z,99168.53
2023-04-02T08:30:04.918Z,99159.69
2023-04-02T08:34:07.989Z,99174.50
2023-04-02T08:38:15.519Z,99171.72
2023-04-02T08:42:29.337Z,99175.03
2023-04-02T08:46:38.895Z,99178.47
2023-04-02T08:50:44.264Z,99185.50
2023-04-02T08:54:47.746Z,99182.88
2023-04-02T08:58:56.201Z,99184.56
2023-04-02T09:03:03.848Z,99195.94
2023-04-02T09:07:07.108Z,99193.31
2023-04-02T09:11:17.314Z,99188.81
2023-04-02T09:15:30.723Z,99195.78
2023-04-02T09:19:38.130Z,99208.91
2023-04-02T09:23:41.272Z,99213.22
2023-04-02T09:27:49.037Z,99202.69
2023-04-02T09:32:01.002Z,99207.91
2023-04-02T09:36:04.207Z,99217.53
2023-04-02T09:40:18.446Z,99213.84
2023-04-02T09:44:24.421Z,99215.47
2023-04-02T09:48:31.450Z,99215.38
2023-04-02T09:52:34.846Z,99222.31
2023-04-02T09:56:39.259Z,99224.63
2023-04-02T10:00:51.295Z,99225.22
2023-04-02T10:04:56.096Z,99218.13
2023-04-02T10:08:59.330Z,99225.03
2023-04-02T10:13:05.357Z,99229.28
2023-04-02T10:17:14.018Z,99235.59
2023-04-02T10:21:20.668Z,99232.16
2023-04-02T10:25:27.687Z,99234.06
2023-04-02T10:30:02.518Z,99242.94
2023-04-02T10:34:13.757Z,99232.44
2023-04-02T10:38:42.893Z,99235.13
2023-04-02T10:42:56.820Z,99234.31
2023-04-02T10:47:09.243Z,99235.09
2023-04-02T10:51:21.331Z,99243.78
2023-04-02T10:55:30.231Z,99250.75
2023-04-02T10:59:38.325Z,99244.56
2023-04-02T11:03:47.809Z,99251.66
2023-04-02T11:07:56.752Z,99260.44
2023-04-02T11:12:03.181Z,99263.97
2023-04-02T11:16:06.815Z,99270.16
2023-04-02T11:20:47.245Z,99279.69
2023-04-02T11:24:51.883Z,99290.31
2023-04-02T11:29:08.065Z,99299.25
2023-04-02T11:33:44.297Z,99335.00
2023-04-02T11:37:48.680Z,99360.41
2023-04-02T11:42:24.945Z,99370.75
2023-04-02T11:46:47.660Z,99376.38
2023-04-02T11:50:50.868Z,99387.91
2023-04-02T11:55:00.914Z,99399.44
2023-04-02T11:59:13.023Z,99407.41
2023-04-02T12:03:34.608Z,99412.75
2023-04-02T12:07:55.868Z,99409.25
2023-04-02T12:12:01.242Z,99422.50
2023-04-02T12:16:04.916Z,99419.94
2023-04-02T12:20:24.180Z,99435.78
2023-04-02T12:24:31.374Z,99434.06
2023-04-02T12:28:38.030Z,99434.06
2023-04-02T12:32:41.549Z,99449.88
2023-04-02T12:36:55.133Z,99460.44
2023-04-02T12:40:59.716Z,99464.81
2023-04-02T12:45:05.016Z,99465.75
2023-04-02T12:49:21.849Z,99464.00
2023-04-02T12:53:31.594Z,99474.44
2023-04-02T12:57:40.750Z,99480.59
2023-04-02T13:01:57.159Z,99484.97
2023-04-02T13:06:00.525Z,99487.59
2023-04-02T13:10:08.510Z,99491.97
2023-04-02T13:14:19.992Z,99497.25
2023-04-02T13:18:24.286Z,99499.00
2023-04-02T13:22:32.209Z,99496.34
2023-04-02T13:26:36.723Z,99512.13
2023-04-02T13:30:39.787Z,99506.00
2023-04-02T13:34:42.810Z,99506.88
2023-04-02T13:38:46.036Z,99511.25
2023-04-02T13:42:50.902Z,99513.00
2023-04-02T13:46:55.149Z,99511.25
2023-04-02T13:50:58.238Z,99512.16
2023-04-02T13:55:05.849Z,99516.59
2023-04-02T13:59:11.419Z,99521.81
2023-04-02T14:03:18.611Z,99520.06
2023-04-02T14:07:45.140Z,99526.22
2023-04-02T14:11:58.047Z,99523.59
2023-04-02T14:16:19.302Z,99522.72
2023-04-02T14:20:35.100Z,99524.44
2023-04-02T14:24:49.854Z,99543.75
2023-04-02T14:29:01.676Z,99541.13
2023-04-02T14:33:17.392Z,99549.91
2023-04-02T14:37:26.749Z,99541.13
2023-04-02T14:41:37.766Z,99553.41
2023-04-02T14:45:53.753Z,99558.69
2023-04-02T14:50:04.395Z,99564.78
2023-04-02T14:54:13.114Z,99570.06
2023-04-02T14:58:21.163Z,99577.06
2023-04-02T15:02:31.460Z,99576.19
2023-04-02T15:06:41.613Z,99579.72
2023-04-02T15:10:58.653Z,99579.72
2023-04-02T15:15:09.817Z,99577.97
2023-04-02T15:19:15.746Z,99581.47
2023-04-02T15:23:32.488Z,99585.84
2023-04-02T15:27:51.256Z,99598.09
2023-04-02T15:32:00.806Z,99606.03
2023-04-02T15:36:28.456Z,99619.16
2023-04-02T15:40:45.049Z,99634.03
2023-04-02T15:45:14.132Z,99640.13
2023-04-02T15:49:31.989Z,99651.50
2023-04-02T15:53:48.440Z,99660.25
2023-04-02T15:58:25.693Z,99674.25
2023-04-02T16:02:59.280Z,99688.22
2023-04-02T16:07:20.377Z,99696.06
2023-04-02T16:11:23.899Z,99703.94
2023-04-02T16:15:36.216Z,99707.38
2023-04-02T16:19:43.511Z,99712.66
2023-04-02T16:23:46.682Z,99720.47
2023-04-02T16:27:54.676Z,99726.59
2023-04-02T16:32:06.509Z,99728.31
2023-04-02T16:36:25.234Z,99742.25
2023-04-02T16:40:38.074Z,99740.56
2023-04-02T16:44:54.444Z,99747.53
2023-04-02T16:49:03.418Z,99765.88
2023-04-02T16:53:23.249Z,99763.22
2023-04-02T16:57:38.030Z,99776.38
2023-04-02T17:01:51.781Z,99790.25
2023-04-02T17:06:02.808Z,99809.41
2023-04-02T17:10:25.684Z,99827.69
2023-04-02T17:14:32.711Z,99838.91
2023-04-02T17:18:36.599Z,99854.47
2023-04-02T17:22:41.379Z,99856.97
2023-04-02T17:26:47.721Z,99866.50
2023-04-02T17:30:54.369Z,99869.00
2023-04-02T17:34:57.993Z,99881.97
2023-04-02T17:39:12.797Z,99891.50
2023-04-02T17:43:35.638Z,99906.16
2023-04-02T17:47:48.391Z,99906.94
2023-04-02T17:51:58.812Z,99921.66
2023-04-02T17:56:17.454Z,99928.56
2023-04-02T18:00:46.833Z,99933.75
2023-04-02T18:04:58.542Z,99949.34
2023-04-02T18:09:15.693Z,99953.59
2023-04-02T18:13:31.962Z,99970.06
2023-04-02T18:17:47.389Z,99976.88
2023-04-02T18:21:59.557Z,99989.06
2023-04-02T18:26:12.161Z,100002.91
2023-04-02T18:30:23.035Z,100012.44
2023-04-02T18:34:41.685Z,100031.59
2023-04-02T18:38:48.863Z,100034.03
2023-04-02T18:43:01.479Z,100054.06
2023-04-02T18:47:13.688Z,100058.28
2023-04-02T18:51:22.060Z,100064.31
2023-04-02T18:55:29.105Z,100059.88
2023-04-02T18:59:39.308Z,100067.66
2023-04-02T19:03:50.204Z,100076.22
2023-04-02T19:07:59.193Z,100077.94
2023-04-02T19:12:03.855Z,100089.03
2023-04-02T19:16:33.154Z,100096.00
2023-04-02T19:20:44.619Z,100103.75
2023-04-02T19:25:16.679Z,100107.13
2023-04-02T19:29:32.585Z,100112.38
2023-04-02T19:33:43.781Z,100119.34
2023-04-02T19:37:59.042Z,100125.31
2023-04-02T19:42:14.608Z,100134.94
2023-04-02T19:46:18.509Z,100131.38
2023-04-02T19:50:22.248Z,100142.66
2023-04-02T19:54:26.655Z,100150.41
2023-04-02T19:58:32.166Z,100146.00
2023-04-02T20:02:35.505Z,100152.09
2023-04-02T20:06:38.680Z,100165.13
2023-04-02T20:10:43.655Z,100168.53
2023-04-02T20:14:46.733Z,100175.50
2023-04-02T20:18:50.420Z,100176.44
2023-04-02T20:22:53.534Z,100179.91
2023-04-02T20:26:57.929Z,100175.50
2023-04-02T20:31:08.578Z,100185.88
2023-04-02T20:35:11.756Z,100172.72
2023-04-02T20:39:19.335Z,100183.13
2023-04-02T20:43:24.139Z,100191.84
2023-04-02T20:47:27.337Z,100195.38
2023-04-02T20:51:30.602Z,100189.38
2023-04-02T20:55:33.629Z,100187.66
2023-04-02T20:59:38.172Z,100193.81
2023-04-02T21:03:41.401Z,100193.03
2023-04-02T21:07:44.406Z,100188.63
2023-04-02T21:11:47.494Z,100197.34
2023-04-02T21:15:52.033Z,100201.78
2023-04-02T21:19:55.062Z,100204.25
2023-04-02T21:24:00.362Z,100199.97
2023-04-02T21:28:03.879Z,100208.78
2023-04-02T21:32:20.975Z,100213.19
2023-04-02T21:36:26.945Z,100208.81
2023-04-02T21:40:30.071Z,100210.41
2023-04-02T21:44:33.108Z,100206.09
2023-04-02T21:48:37.646Z,100211.38
2023-04-02T21:52:40.739Z,100202.63
2023-04-02T21:56:46.078Z,100199.09
2023-04-02T22:00:49.375Z,100199.97
2023-04-02T22:04:54.222Z,100202.63
2023-04-02T22:08:59.410Z,100207.72
2023-04-02T22:13:02.458Z,100204.19
2023-04-02T22:17:05.583Z,100204.19
2023-04-02T22:21:11.486Z,100201.53
2023-04-02T22:25:14.508Z,100202.44
2023-04-02T22:29:17.640Z,100205.84
2023-04-02T22:33:20.732Z,100207.53
2023-04-02T22:37:25.157Z,100196.28
2023-04-02T22:41:29.790Z,100193.72
2023-04-02T22:45:32.917Z,100198.94
2023-04-02T22:49:35.940Z,100195.44
2023-04-02T22:53:40.826Z,100200.69
2023-04-02T22:57:44.334Z,100196.28
2023-04-02T23:01:47.507Z,100195.38
2023-04-02T23:05:59.963Z,100196.25
2023-04-02T23:10:05.439Z,100193.72
2023-04-02T23:14:08.971Z,100205.84
2023-04-02T23:18:11.986Z,100208.47
2023-04-02T23:22:15.044Z,100205.78
2023-04-02T23:26:22.342Z,100195.38
2023-04-02T23:30:25.506Z,100202.31
2023-04-02T23:34:28.558Z,100202.22
2023-04-02T23:38:31.575Z,100201.38
2023-04-02T23:42:36.125Z,100190.78
2023-04-02T23:46:39.576Z,100189.09
2023-04-02T23:50:42.942Z,100184.69
2023-04-02T23:54:45.943Z,100189.91
2023-04-02T23:58:51.583Z,100191.63
